createdAt,value
2018-09-17T00:01:16.208Z,8.87
2018-09-17T00:03:21.030Z,7.90
2018-09-17T00:05:25.896Z,7.90
2018-09-17T00:07:30.786Z,8.80
2018-09-17T00:09:35.684Z,8.97
2018-09-17T00:11:40.692Z,8.30
2018-09-17T00:13:45.723Z,9.20
2018-09-17T00:15:50.604Z,9.07
2018-09-17T00:17:55.148Z,8.77
2018-09-17T00:20:00.764Z,9.20
2018-09-17T00:22:05.877Z,9.00
2018-09-17T00:24:10.905Z,9.03
2018-09-17T00:26:18.502Z,8.30
2018-09-17T00:28:23.450Z,8.77
2018-09-17T00:30:28.221Z,8.13
2018-09-17T00:32:32.920Z,8.70
2018-09-17T00:34:37.642Z,7.80
2018-09-17T00:36:42.843Z,8.50
2018-09-17T00:38:47.666Z,8.77
2018-09-17T00:40:52.463Z,8.80
2018-09-17T00:42:57.320Z,8.63
2018-09-17T00:45:02.866Z,8.80
2018-09-17T00:47:07.853Z,8.10
2018-09-17T00:49:12.448Z,9.00
2018-09-17T00:51:18.397Z,8.43
2018-09-17T00:53:23.362Z,8.47
2018-09-17T00:55:28.439Z,7.97
2018-09-17T00:57:33.556Z,8.60
2018-09-17T00:59:38.452Z,8.27
2018-09-17T01:01:43.273Z,8.50
2018-09-17T01:03:48.376Z,9.17
2018-09-17T01:05:53.419Z,8.83
2018-09-17T01:07:58.174Z,8.10
2018-09-17T01:10:04.363Z,8.80
2018-09-17T01:12:09.281Z,9.87
2018-09-17T01:14:14.144Z,9.30
2018-09-17T01:16:18.718Z,9.70
2018-09-17T01:18:23.637Z,7.40
2018-09-17T01:20:28.775Z,8.63
2018-09-17T01:22:33.703Z,8.80
2018-09-17T01:24:38.603Z,9.10
2018-09-17T01:26:43.358Z,8.60
2018-09-17T01:28:48.323Z,9.97
2018-09-17T01:30:53.503Z,9.63
2018-09-17T01:32:58.554Z,8.00
2018-09-17T01:35:03.242Z,8.20
2018-09-17T01:37:07.973Z,9.93
2018-09-17T01:39:14.024Z,9.37
2018-09-17T01:41:19.126Z,9.33
2018-09-17T01:43:24.184Z,9.20
2018-09-17T01:45:29.091Z,8.43
2018-09-17T01:47:33.919Z,9.20
2018-09-17T01:49:38.776Z,9.30
2018-09-17T01:51:43.951Z,9.17
2018-09-17T01:53:48.901Z,8.90
2018-09-17T01:55:53.864Z,8.30
2018-09-17T01:57:58.785Z,8.80
2018-09-17T02:00:03.923Z,8.77
2018-09-17T02:02:09.925Z,9.73
2018-09-17T02:04:15.091Z,8.47
2018-09-17T02:06:19.807Z,8.53
2018-09-17T02:08:24.690Z,9.03
2018-09-17T02:10:29.885Z,8.93
2018-09-17T02:12:34.910Z,9.13
2018-09-17T02:14:39.726Z,10.80
2018-09-17T02:16:44.842Z,10.50
2018-09-17T02:18:49.793Z,8.77
2018-09-17T02:20:54.795Z,10.63
2018-09-17T02:22:59.684Z,9.10
2018-09-17T02:25:04.628Z,9.00
2018-09-17T02:27:09.633Z,8.73
2018-09-17T02:29:14.549Z,8.50
2018-09-17T02:31:19.645Z,8.97
2018-09-17T02:33:24.679Z,8.80
2018-09-17T02:35:29.584Z,9.63
2018-09-17T02:37:34.415Z,10.00
2018-09-17T02:39:39.182Z,9.70
2018-09-17T02:41:44.124Z,8.40
2018-09-17T02:43:49.125Z,8.77
2018-09-17T02:45:53.986Z,10.37
2018-09-17T02:47:58.890Z,9.30
2018-09-17T02:50:04.104Z,8.30
2018-09-17T02:52:08.928Z,9.37
2018-09-17T02:54:13.787Z,9.57
2018-09-17T02:56:18.945Z,9.30
2018-09-17T02:58:23.840Z,9.47
2018-09-17T03:00:28.794Z,8.70
2018-09-17T03:02:33.811Z,8.43
2018-09-17T03:04:38.964Z,9.00
2018-09-17T03:06:43.749Z,8.23
2018-09-17T03:08:48.703Z,8.97
2018-09-17T03:10:53.403Z,9.33
2018-09-17T03:12:58.061Z,8.93
2018-09-17T03:15:02.952Z,8.00
2018-09-17T03:17:08.811Z,8.40
2018-09-17T03:19:13.957Z,8.67
2018-09-17T03:21:18.775Z,8.90
2018-09-17T03:23:23.832Z,8.60
2018-09-17T03:25:28.616Z,9.47
2018-09-17T03:27:33.605Z,8.47
2018-09-17T03:29:38.609Z,8.80
2018-09-17T03:31:43.620Z,9.60
2018-09-17T03:33:48.631Z,9.63
2018-09-17T03:35:53.569Z,8.70
2018-09-17T03:37:58.453Z,8.23
2018-09-17T03:40:03.586Z,8.87
2018-09-17T03:42:08.405Z,8.73
2018-09-17T03:44:13.126Z,8.03
2018-09-17T03:46:18.153Z,8.37
2018-09-17T03:48:23.313Z,8.73
2018-09-17T03:50:28.186Z,8.67
2018-09-17T03:52:33.235Z,8.27
2018-09-17T03:54:38.063Z,9.03
2018-09-17T03:56:42.880Z,8.60
2018-09-17T03:58:47.840Z,8.37
2018-09-17T04:00:53.127Z,7.67
2018-09-17T04:02:58.119Z,9.30
2018-09-17T04:05:03.032Z,9.97
2018-09-17T04:07:07.982Z,9.30
2018-09-17T04:09:12.935Z,9.20
2018-09-17T04:11:18.039Z,8.57
2018-09-17T04:13:22.912Z,8.70
2018-09-17T04:15:28.305Z,10.23
2018-09-17T04:17:33.085Z,9.50
2018-09-17T04:19:37.997Z,8.47
2018-09-17T04:21:43.172Z,10.33
2018-09-17T04:23:48.280Z,9.93
2018-09-17T04:25:52.876Z,8.27
2018-09-17T04:27:57.876Z,8.60
2018-09-17T04:30:02.879Z,10.33
2018-09-17T04:32:07.816Z,9.43
2018-09-17T04:34:12.826Z,8.87
2018-09-17T04:36:17.898Z,10.00
2018-09-17T04:38:22.859Z,8.77
2018-09-17T04:40:27.898Z,9.73
2018-09-17T04:42:32.744Z,9.93
2018-09-17T04:44:37.589Z,10.50
2018-09-17T04:46:42.817Z,10.60
2018-09-17T04:48:47.787Z,10.17
2018-09-17T04:50:52.694Z,9.23
2018-09-17T04:52:57.649Z,9.57
2018-09-17T04:55:02.718Z,9.17
2018-09-17T04:57:07.480Z,8.97
2018-09-17T04:59:12.363Z,10.73
2018-09-17T05:01:17.253Z,8.83
2018-09-17T05:03:22.134Z,9.57
2018-09-17T05:05:27.108Z,9.70
2018-09-17T05:07:32.364Z,9.50
2018-09-17T05:09:37.256Z,9.20
2018-09-17T05:11:42.064Z,9.47
2018-09-17T05:13:46.784Z,10.00
2018-09-17T05:15:51.793Z,8.73
2018-09-17T05:17:56.986Z,9.23
2018-09-17T05:20:02.093Z,10.23
2018-09-17T05:22:07.851Z,9.93
2018-09-17T05:24:12.801Z,10.43
2018-09-17T05:26:17.767Z,9.60
2018-09-17T05:28:22.923Z,9.27
2018-09-17T05:30:27.746Z,8.50
2018-09-17T05:32:32.463Z,9.83
2018-09-17T05:34:37.492Z,9.90
2018-09-17T05:36:42.263Z,9.87
2018-09-17T05:38:47.275Z,9.63
2018-09-17T05:40:52.141Z,8.87
2018-09-17T05:42:56.871Z,9.40
2018-09-17T05:45:01.809Z,10.00
2018-09-17T05:47:06.932Z,9.43
2018-09-17T05:49:11.877Z,9.20
2018-09-17T05:51:16.756Z,10.47
2018-09-17T05:53:21.732Z,10.17
2018-09-17T05:55:26.599Z,10.00
2018-09-17T05:57:31.571Z,10.87
2018-09-17T05:59:36.220Z,9.80
2018-09-17T06:01:42.055Z,10.47
2018-09-17T06:03:46.955Z,10.87
2018-09-17T06:05:52.127Z,10.33
2018-09-17T06:07:57.048Z,9.30
2018-09-17T06:10:01.983Z,9.93
2018-09-17T06:12:06.560Z,10.10
2018-09-17T06:14:11.632Z,10.77
2018-09-17T06:16:16.621Z,8.93
2018-09-17T06:18:21.625Z,9.90
2018-09-17T06:20:26.425Z,10.63
2018-09-17T06:22:31.393Z,11.47
2018-09-17T06:24:36.597Z,9.87
2018-09-17T06:26:41.594Z,9.60
2018-09-17T06:28:46.504Z,10.97
2018-09-17T06:30:51.689Z,10.13
2018-09-17T06:32:56.456Z,10.30
2018-09-17T06:35:01.172Z,10.30
2018-09-17T06:37:06.130Z,11.90
2018-09-17T06:39:11.621Z,10.13
2018-09-17T06:41:16.510Z,10.10
2018-09-17T06:43:21.462Z,11.27
2018-09-17T06:45:26.377Z,10.37
2018-09-17T06:47:32.347Z,10.97
2018-09-17T06:49:37.351Z,9.40
2018-09-17T06:51:42.272Z,9.87
2018-09-17T06:53:47.234Z,9.73
2018-09-17T06:55:52.259Z,10.20
2018-09-17T06:57:57.257Z,9.57
2018-09-17T07:00:02.116Z,9.30
2018-09-17T07:02:06.989Z,8.77
2018-09-17T07:04:11.954Z,8.97
2018-09-17T07:06:16.943Z,9.43
2018-09-17T07:08:22.875Z,9.73
2018-09-17T07:10:27.927Z,9.87
2018-09-17T07:12:33.086Z,9.67
2018-09-17T07:14:37.893Z,9.90
2018-09-17T07:16:42.795Z,8.30
2018-09-17T07:18:47.659Z,10.23
2018-09-17T07:20:52.729Z,9.13
2018-09-17T07:22:57.734Z,9.07
2018-09-17T07:25:02.678Z,11.43
2018-09-17T07:27:07.743Z,10.93
2018-09-17T07:29:12.558Z,9.20
2018-09-17T07:31:17.643Z,8.80
2018-09-17T07:33:22.451Z,10.50
2018-09-17T07:35:27.285Z,9.20
2018-09-17T07:37:32.486Z,8.63
2018-09-17T07:39:37.502Z,8.47
2018-09-17T07:41:42.505Z,10.37
2018-09-17T07:43:48.850Z,8.93
2018-09-17T07:45:53.851Z,10.07
2018-09-17T07:47:58.645Z,9.70
2018-09-17T07:50:03.502Z,10.30
2018-09-17T07:52:08.458Z,9.57
2018-09-17T07:54:13.383Z,9.97
2018-09-17T07:56:18.301Z,10.60
2018-09-17T07:58:23.216Z,9.33
2018-09-17T08:00:28.142Z,9.87
2018-09-17T08:02:32.914Z,9.40
2018-09-17T08:04:37.867Z,9.20
2018-09-17T08:06:42.628Z,10.10
2018-09-17T08:08:47.509Z,10.07
2018-09-17T08:10:52.316Z,10.10
2018-09-17T08:12:57.216Z,9.40
2018-09-17T08:15:02.139Z,9.50
2018-09-17T08:17:06.907Z,9.73
2018-09-17T08:19:12.111Z,9.47
2018-09-17T08:21:17.015Z,9.47
2018-09-17T08:23:21.855Z,10.23
2018-09-17T08:25:26.905Z,10.07
2018-09-17T08:27:31.782Z,10.97
2018-09-17T08:29:36.877Z,9.53
2018-09-17T08:31:41.815Z,10.30
2018-09-17T08:33:46.614Z,9.20
2018-09-17T08:35:51.623Z,9.30
2018-09-17T08:37:56.407Z,10.33
2018-09-17T08:40:01.485Z,9.27
2018-09-17T08:42:06.352Z,9.20
2018-09-17T08:44:11.627Z,9.77
2018-09-17T08:46:16.537Z,10.40
2018-09-17T08:48:21.289Z,10.93
2018-09-17T08:50:26.213Z,9.10
2018-09-17T08:52:31.139Z,10.10
2018-09-17T08:54:39.868Z,9.40
2018-09-17T08:56:51.601Z,10.50
2018-09-17T08:59:04.888Z,9.93
2018-09-17T09:02:14.373Z,9.67
2018-09-17T09:04:23.605Z,10.00
2018-09-17T09:06:32.449Z,9.77
2018-09-17T09:08:37.290Z,10.57
2018-09-17T09:10:46.481Z,9.30
2018-09-17T09:12:55.230Z,9.77
2018-09-17T09:15:03.944Z,9.80
2018-09-17T09:17:09.073Z,9.53
2018-09-17T09:19:13.966Z,9.30
2018-09-17T09:21:18.911Z,9.17
2018-09-17T09:23:23.812Z,10.20
2018-09-17T09:25:28.876Z,10.87
2018-09-17T09:27:33.619Z,9.97
2018-09-17T09:29:38.659Z,10.90
2018-09-17T09:31:43.497Z,8.90
2018-09-17T09:33:48.423Z,9.90
2018-09-17T09:35:53.463Z,10.20
2018-09-17T09:37:58.221Z,9.90
2018-09-17T09:40:03.001Z,9.90
2018-09-17T09:42:08.214Z,8.87
2018-09-17T09:44:12.964Z,9.23
2018-09-17T09:46:18.615Z,9.87
2018-09-17T09:48:23.472Z,10.80
2018-09-17T09:50:28.460Z,10.87
2018-09-17T09:52:33.394Z,9.23
2018-09-17T09:54:38.510Z,9.83
2018-09-17T09:56:43.228Z,10.10
2018-09-17T09:58:48.047Z,9.73
2018-09-17T10:00:57.101Z,9.50
2018-09-17T10:03:07.616Z,9.80
2018-09-17T10:05:12.523Z,9.50
2018-09-17T10:07:17.589Z,10.87
2018-09-17T10:09:26.537Z,9.63
2018-09-17T10:11:35.460Z,9.10
2018-09-17T10:13:44.277Z,10.27
2018-09-17T10:15:57.282Z,8.30
2018-09-17T10:18:05.778Z,8.93
2018-09-17T10:20:10.469Z,9.43
2018-09-17T10:22:15.577Z,10.10
2018-09-17T10:24:20.471Z,9.67
2018-09-17T10:26:24.999Z,9.50
2018-09-17T10:28:30.099Z,13.23
2018-09-17T10:30:34.830Z,9.90
2018-09-17T10:32:39.836Z,9.97
2018-09-17T10:34:44.936Z,9.67
2018-09-17T10:36:49.982Z,10.67
2018-09-17T10:38:54.885Z,9.57
2018-09-17T10:41:00.337Z,9.77
2018-09-17T10:43:05.440Z,9.70
2018-09-17T10:45:10.419Z,10.10
2018-09-17T10:47:15.326Z,8.90
2018-09-17T10:49:20.353Z,9.70
2018-09-17T10:51:25.336Z,9.80
2018-09-17T10:53:30.273Z,9.50
2018-09-17T10:55:35.175Z,9.33
2018-09-17T10:57:40.340Z,9.47
2018-09-17T10:59:45.453Z,9.53
2018-09-17T11:01:50.133Z,10.20
2018-09-17T11:03:54.898Z,8.93
2018-09-17T11:05:59.509Z,9.97
2018-09-17T11:08:04.563Z,8.37
2018-09-17T11:10:10.812Z,10.10
2018-09-17T11:12:15.706Z,8.30
2018-09-17T11:14:20.558Z,9.53
2018-09-17T11:16:25.715Z,8.60
2018-09-17T11:18:30.676Z,10.00
2018-09-17T11:20:35.638Z,8.73
2018-09-17T11:22:41.273Z,10.67
2018-09-17T11:24:46.384Z,8.90
2018-09-17T11:26:51.059Z,9.77
2018-09-17T11:28:55.919Z,9.17
2018-09-17T11:31:00.734Z,9.23
2018-09-17T11:33:05.818Z,8.70
2018-09-17T11:35:10.751Z,9.23
2018-09-17T11:37:15.755Z,9.23
2018-09-17T11:39:20.779Z,10.03
2018-09-17T11:41:25.964Z,9.60
2018-09-17T11:43:30.884Z,9.33
2018-09-17T11:45:35.972Z,10.20
2018-09-17T11:47:41.085Z,9.53
2018-09-17T11:49:45.934Z,10.47
2018-09-17T11:51:50.802Z,9.20
2018-09-17T11:53:55.777Z,10.50
2018-09-17T11:56:00.928Z,10.20
2018-09-17T11:58:05.716Z,9.63
2018-09-17T12:00:10.606Z,9.20
2018-09-17T12:02:19.545Z,9.23
2018-09-17T12:04:28.458Z,10.90
2018-09-17T12:06:37.549Z,9.93
2018-09-17T12:08:42.380Z,10.40
2018-09-17T12:10:47.352Z,9.70
2018-09-17T12:12:52.520Z,8.97
2018-09-17T12:14:57.421Z,10.33
2018-09-17T12:17:02.206Z,9.93
2018-09-17T12:19:07.335Z,8.87
2018-09-17T12:21:13.905Z,9.63
2018-09-17T12:23:18.748Z,9.70
2018-09-17T12:25:23.691Z,10.23
2018-09-17T12:27:28.751Z,10.80
2018-09-17T12:29:34.576Z,8.87
2018-09-17T12:31:39.471Z,9.80
2018-09-17T12:33:44.525Z,9.93
2018-09-17T12:35:49.470Z,10.00
2018-09-17T12:37:54.580Z,9.77
2018-09-17T12:39:59.538Z,10.30
2018-09-17T12:42:04.610Z,9.10
2018-09-17T12:44:09.577Z,10.13
2018-09-17T12:46:14.607Z,9.40
2018-09-17T12:48:19.345Z,9.70
2018-09-17T12:50:24.684Z,10.93
2018-09-17T12:52:29.538Z,10.43
2018-09-17T12:54:34.580Z,10.20
2018-09-17T12:56:39.990Z,11.20
2018-09-17T12:58:44.862Z,9.80
2018-09-17T13:00:49.772Z,9.27
2018-09-17T13:02:54.882Z,9.37
2018-09-17T13:04:59.645Z,9.40
2018-09-17T13:07:04.449Z,10.23
2018-09-17T13:09:09.420Z,9.90
2018-09-17T13:11:14.251Z,9.67
2018-09-17T13:13:19.245Z,10.57
2018-09-17T13:15:24.037Z,9.20
2018-09-17T13:17:29.001Z,8.93
2018-09-17T13:19:33.773Z,9.33
2018-09-17T13:21:38.740Z,8.13
2018-09-17T13:23:43.709Z,9.33
2018-09-17T13:25:48.786Z,10.53
2018-09-17T13:27:53.709Z,10.10
2018-09-17T13:29:58.636Z,9.87
2018-09-17T13:32:03.633Z,8.47
2018-09-17T13:34:08.809Z,9.57
2018-09-17T13:36:13.815Z,10.60
2018-09-17T13:38:18.836Z,11.10
2018-09-17T13:40:23.827Z,10.57
2018-09-17T13:42:28.820Z,10.93
2018-09-17T13:44:34.110Z,9.63
2018-09-17T13:46:39.163Z,9.53
2018-09-17T13:48:44.045Z,9.57
2018-09-17T13:50:48.996Z,9.83
2018-09-17T13:52:54.035Z,10.50
2018-09-17T13:54:58.971Z,10.00
2018-09-17T13:57:03.953Z,11.00
2018-09-17T13:59:08.777Z,10.60
2018-09-17T14:01:13.907Z,11.67
2018-09-17T14:03:18.751Z,12.07
2018-09-17T14:05:23.727Z,12.93
2018-09-17T14:07:28.790Z,12.53
2018-09-17T14:09:33.534Z,13.20
2018-09-17T14:11:38.561Z,11.10
2018-09-17T14:13:43.433Z,12.37
2018-09-17T14:15:52.422Z,12.80
2018-09-17T14:17:57.738Z,11.10
2018-09-17T14:20:02.683Z,11.07
2018-09-17T14:22:07.610Z,10.47
2018-09-17T14:24:12.357Z,12.00
2018-09-17T14:26:17.184Z,10.33
2018-09-17T14:28:22.622Z,9.60
2018-09-17T14:30:27.298Z,11.33
2018-09-17T14:32:36.443Z,10.53
2018-09-17T14:34:41.519Z,10.97
2018-09-17T14:36:46.394Z,10.87
2018-09-17T14:38:51.339Z,10.73
2018-09-17T14:40:57.708Z,10.93
2018-09-17T14:43:02.675Z,11.13
2018-09-17T14:45:07.404Z,11.97
2018-09-17T14:47:12.469Z,10.67
2018-09-17T14:49:17.447Z,11.00
2018-09-17T14:51:22.373Z,11.20
2018-09-17T14:53:27.442Z,12.10
2018-09-17T14:55:32.291Z,10.33
2018-09-17T14:57:37.137Z,10.60
2018-09-17T14:59:42.198Z,10.37
2018-09-17T15:01:47.173Z,11.80
2018-09-17T15:03:52.181Z,10.47
2018-09-17T15:05:57.126Z,11.17
2018-09-17T15:08:02.158Z,10.33
2018-09-17T15:10:07.080Z,10.20
2018-09-17T15:12:12.163Z,10.23
2018-09-17T15:14:17.443Z,10.13
2018-09-17T15:16:22.543Z,10.37
2018-09-17T15:18:27.510Z,10.83
2018-09-17T15:20:32.674Z,11.03
2018-09-17T15:22:37.472Z,9.90
2018-09-17T15:24:42.134Z,10.70
2018-09-17T15:26:47.383Z,11.80
2018-09-17T15:28:52.271Z,11.30
2018-09-17T15:30:57.264Z,9.90
2018-09-17T15:33:02.157Z,10.73
2018-09-17T15:35:07.135Z,11.10
2018-09-17T15:37:12.164Z,10.67
2018-09-17T15:39:17.130Z,11.87
2018-09-17T15:41:21.925Z,11.27
2018-09-17T15:43:26.921Z,11.97
2018-09-17T15:45:32.211Z,13.83
2018-09-17T15:47:37.393Z,12.17
2018-09-17T15:49:42.321Z,13.03
2018-09-17T15:51:47.275Z,12.90
2018-09-17T15:53:52.255Z,11.57
2018-09-17T15:55:57.581Z,12.23
2018-09-17T15:58:02.685Z,10.57
2018-09-17T16:00:07.438Z,11.80
2018-09-17T16:02:13.833Z,12.37
2018-09-17T16:04:18.847Z,11.93
2018-09-17T16:06:23.831Z,11.53
2018-09-17T16:08:29.185Z,12.10
2018-09-17T16:10:34.093Z,10.83
2018-09-17T16:12:39.119Z,11.57
2018-09-17T16:14:43.911Z,10.47
2018-09-17T16:16:49.159Z,11.63
2018-09-17T16:18:54.022Z,11.73
2018-09-17T16:20:58.932Z,12.60
2018-09-17T16:23:03.799Z,11.93
2018-09-17T16:25:08.473Z,10.67
2018-09-17T16:27:13.282Z,10.37
2018-09-17T16:29:18.488Z,10.87
2018-09-17T16:31:23.333Z,12.17
2018-09-17T16:33:28.226Z,9.97
2018-09-17T16:35:33.284Z,11.20
2018-09-17T16:37:38.379Z,11.20
2018-09-17T16:39:43.350Z,10.83
2018-09-17T16:41:49.263Z,11.27
2018-09-17T16:43:54.409Z,10.93
2018-09-17T16:45:59.566Z,11.77
2018-09-17T16:48:04.528Z,12.20
2018-09-17T16:50:09.346Z,12.17
2018-09-17T16:52:14.369Z,12.27
2018-09-17T16:54:19.171Z,12.57
2018-09-17T16:56:24.135Z,12.63
2018-09-17T16:58:29.090Z,12.57
2018-09-17T17:00:34.136Z,13.20
2018-09-17T17:02:39.028Z,13.97
2018-09-17T17:04:44.100Z,13.00
2018-09-17T17:06:49.319Z,13.73
2018-09-17T17:08:54.234Z,13.87
2018-09-17T17:10:59.127Z,13.20
2018-09-17T17:13:04.434Z,12.27
2018-09-17T17:15:09.176Z,13.10
2018-09-17T17:17:14.069Z,11.50
2018-09-17T17:19:18.761Z,12.77
2018-09-17T17:21:23.686Z,14.30
2018-09-17T17:23:28.421Z,11.77
2018-09-17T17:25:33.297Z,12.10
2018-09-17T17:27:38.169Z,11.33
2018-09-17T17:29:44.102Z,13.10
2018-09-17T17:31:48.924Z,11.90
2018-09-17T17:33:54.082Z,11.43
2018-09-17T17:35:59.137Z,10.73
2018-09-17T17:38:03.940Z,13.27
2018-09-17T17:40:08.690Z,12.27
2018-09-17T17:42:13.678Z,11.27
2018-09-17T17:44:18.689Z,13.13
2018-09-17T17:46:23.690Z,12.07
2018-09-17T17:48:29.011Z,12.37
2018-09-17T17:50:33.915Z,10.20
2018-09-17T17:52:38.861Z,12.13
2018-09-17T17:54:44.004Z,12.13
2018-09-17T17:56:49.035Z,12.00
2018-09-17T17:58:53.843Z,12.07
2018-09-17T18:00:58.488Z,12.30
2018-09-17T18:03:03.451Z,13.33
2018-09-17T18:05:08.127Z,14.10
2018-09-17T18:07:13.025Z,13.13
2018-09-17T18:09:17.950Z,13.73
2018-09-17T18:11:22.933Z,13.47
2018-09-17T18:13:27.883Z,13.93
2018-09-17T18:15:33.996Z,13.80
2018-09-17T18:17:38.896Z,13.27
2018-09-17T18:19:44.052Z,13.10
2018-09-17T18:21:49.018Z,14.70
2018-09-17T18:23:53.968Z,14.00
2018-09-17T18:25:58.929Z,14.03
2018-09-17T18:28:04.108Z,15.10
2018-09-17T18:30:08.887Z,15.10
2018-09-17T18:32:13.635Z,14.50
2018-09-17T18:34:18.772Z,16.03
2018-09-17T18:36:24.243Z,14.77
2018-09-17T18:38:29.305Z,15.07
2018-09-17T18:40:34.325Z,14.87
2018-09-17T18:42:39.256Z,14.73
2018-09-17T18:44:44.275Z,14.83
2018-09-17T18:46:49.608Z,15.50
2018-09-17T18:48:54.531Z,15.67
2018-09-17T18:50:59.227Z,14.83
2018-09-17T18:53:04.499Z,14.33
2018-09-17T18:55:09.626Z,15.83
2018-09-17T18:57:14.584Z,15.27
2018-09-17T18:59:19.594Z,16.00
2018-09-17T19:01:24.775Z,16.73
2018-09-17T19:03:29.746Z,16.03
2018-09-17T19:05:34.574Z,16.40
2018-09-17T19:07:39.479Z,17.70
2018-09-17T19:09:48.609Z,17.73
2018-09-17T19:11:53.717Z,22.20
2018-09-17T19:14:02.656Z,17.27
2018-09-17T19:16:07.486Z,19.00
2018-09-17T19:18:16.341Z,19.17
2018-09-17T19:20:21.480Z,20.77
2018-09-17T19:22:30.769Z,18.00
2018-09-17T19:24:35.997Z,16.73
2018-09-17T19:26:40.884Z,16.93
2018-09-17T19:28:49.968Z,18.00
2018-09-17T19:30:55.022Z,17.60
2018-09-17T19:32:59.858Z,16.67
2018-09-17T19:35:04.776Z,18.10
2018-09-17T19:37:14.282Z,15.93
2018-09-17T19:39:23.529Z,16.67
2018-09-17T19:41:28.719Z,16.90
2018-09-17T19:43:33.976Z,16.90
2018-09-17T19:45:42.826Z,17.67
2018-09-17T19:47:47.891Z,17.00
2018-09-17T19:49:53.107Z,16.83
2018-09-17T19:52:02.225Z,16.97
2018-09-17T19:54:07.302Z,18.20
2018-09-17T19:56:12.346Z,16.43
2018-09-17T19:58:21.404Z,18.33
2018-09-17T20:00:26.517Z,16.50
2018-09-17T20:02:31.360Z,16.77
2018-09-17T20:04:40.280Z,18.53
2018-09-17T20:06:45.295Z,17.40
2018-09-17T20:08:50.327Z,17.97
2018-09-17T20:10:55.083Z,20.30
2018-09-17T20:13:00.012Z,16.00
2018-09-17T20:15:04.709Z,16.10
2018-09-17T20:17:09.481Z,17.40
2018-09-17T20:19:14.602Z,16.80
2018-09-17T20:21:19.520Z,15.93
2018-09-17T20:23:24.467Z,16.90
2018-09-17T20:25:29.247Z,16.07
2018-09-17T20:27:34.229Z,16.37
2018-09-17T20:29:39.250Z,17.87
2018-09-17T20:31:44.192Z,17.80
2018-09-17T20:33:48.989Z,18.80
2018-09-17T20:35:54.002Z,16.90
2018-09-17T20:37:59.265Z,17.03
2018-09-17T20:40:04.167Z,15.57
2018-09-17T20:42:08.945Z,16.97
2018-09-17T20:44:14.089Z,16.87
2018-09-17T20:46:19.466Z,19.23
2018-09-17T20:48:25.865Z,17.17
2018-09-17T20:50:32.408Z,17.30
2018-09-17T20:52:37.298Z,16.60
2018-09-17T20:54:42.156Z,17.00
2018-09-17T20:56:47.244Z,16.40
2018-09-17T20:58:52.126Z,17.23
2018-09-17T21:00:57.158Z,15.37
2018-09-17T21:03:02.255Z,16.43
2018-09-17T21:05:07.393Z,15.70
2018-09-17T21:07:12.241Z,15.50
2018-09-17T21:09:17.196Z,18.53
2018-09-17T21:11:22.380Z,18.10
2018-09-17T21:13:27.297Z,17.37
2018-09-17T21:15:32.167Z,16.97
2018-09-17T21:17:37.104Z,17.43
2018-09-17T21:19:42.073Z,17.03
2018-09-17T21:21:47.070Z,18.30
2018-09-17T21:23:52.128Z,16.30
2018-09-17T21:25:56.965Z,17.60
2018-09-17T21:28:01.948Z,16.43
2018-09-17T21:30:06.943Z,17.27
2018-09-17T21:32:11.826Z,15.67
2018-09-17T21:34:16.657Z,16.77
2018-09-17T21:36:21.365Z,17.47
2018-09-17T21:38:26.508Z,17.33
2018-09-17T21:40:31.381Z,17.50
2018-09-17T21:42:36.261Z,17.37
2018-09-17T21:44:41.075Z,19.27
2018-09-17T21:46:46.089Z,17.77
2018-09-17T21:48:51.017Z,17.40
2018-09-17T21:50:55.967Z,18.33
2018-09-17T21:53:00.972Z,17.40
2018-09-17T21:55:06.105Z,18.33
2018-09-17T21:57:11.027Z,19.07
2018-09-17T21:59:16.116Z,18.20
2018-09-17T22:01:22.478Z,17.03
2018-09-17T22:03:27.289Z,18.93
2018-09-17T22:05:32.214Z,19.20
2018-09-17T22:07:37.292Z,18.13
2018-09-17T22:09:42.298Z,18.37
2018-09-17T22:11:47.424Z,19.40
2018-09-17T22:13:52.660Z,21.20
2018-09-17T22:15:57.609Z,20.73
2018-09-17T22:18:02.399Z,19.63
2018-09-17T22:20:07.465Z,21.27
2018-09-17T22:22:12.415Z,20.10
2018-09-17T22:24:17.449Z,20.53
2018-09-17T22:26:22.320Z,19.90
2018-09-17T22:28:27.064Z,19.87
2018-09-17T22:30:32.178Z,22.27
2018-09-17T22:32:37.157Z,20.00
2018-09-17T22:34:41.820Z,19.90
2018-09-17T22:36:46.588Z,20.70
2018-09-17T22:38:51.286Z,21.10
2018-09-17T22:40:56.215Z,21.20
2018-09-17T22:43:04.445Z,19.80
2018-09-17T22:45:09.288Z,20.00
2018-09-17T22:47:14.415Z,18.37
2018-09-17T22:49:19.988Z,19.13
2018-09-17T22:51:25.401Z,22.17
2018-09-17T22:53:30.717Z,20.97
2018-09-17T22:55:35.572Z,21.00
2018-09-17T22:57:40.651Z,19.67
2018-09-17T22:59:45.581Z,20.27
2018-09-17T23:01:50.851Z,20.00
2018-09-17T23:03:55.548Z,20.57
2018-09-17T23:06:00.658Z,20.00
2018-09-17T23:08:05.983Z,19.07
2018-09-17T23:10:11.492Z,19.80
2018-09-17T23:12:16.705Z,20.13
2018-09-17T23:14:23.173Z,20.40
2018-09-17T23:16:28.126Z,19.03
2018-09-17T23:18:32.990Z,18.87
2018-09-17T23:20:37.994Z,20.20
2018-09-17T23:22:42.904Z,20.80
2018-09-17T23:24:47.918Z,19.53
2018-09-17T23:26:53.303Z,20.43
2018-09-17T23:28:58.219Z,19.07
2018-09-17T23:31:03.010Z,19.47
2018-09-17T23:33:07.905Z,19.07
2018-09-17T23:35:12.758Z,20.57
2018-09-17T23:37:17.716Z,19.63
2018-09-17T23:39:22.642Z,20.37
2018-09-17T23:41:27.691Z,19.47
2018-09-17T23:43:33.164Z,19.53
2018-09-17T23:45:38.295Z,19.33
2018-09-17T23:47:43.089Z,18.77
2018-09-17T23:49:47.827Z,19.47
2018-09-17T23:51:52.616Z,18.93
2018-09-17T23:53:57.528Z,19.90
2018-09-17T23:56:02.480Z,18.63
2018-09-17T23:58:07.238Z,18.67
